sensor_id;sensor_type;location;lat;lon;timestamp;pressure;altitude;pressure_sealevel;temperature;humidity
14232;BME280;7200;52.194;9.900;2024-02-28T00:02:25;100663.88;;;4.29;100.00
14232;BME280;7200;52.194;9.900;2024-02-28T00:04:50;100655.25;;;4.10;100.00
14232;BME280;7200;52.194;9.900;2024-02-28T00:07:15;100664.88;;;4.05;100.00
14232;BME280;7200;52.194;9.900;2024-02-28T00:09:42;100666.53;;;4.14;100.00
14232;BME280;7200;52.194;9.900;2024-02-28T00:12:07;100663.22;;;3.87;100.00
14232;BME280;7200;52.194;9.900;2024-02-28T00:14:33;100658.00;;;3.87;100.00
14232;BME280;7200;52.194;9.900;2024-02-28T00:16:58;100659.72;;;3.95;100.00
14232;BME280;7200;52.194;9.900;2024-02-28T00:19:23;100658.94;;;3.77;100.00
14232;BME280;7200;52.194;9.900;2024-02-28T00:21:50;100676.41;;;3.52;100.00
14232;BME280;7200;52.194;9.900;2024-02-28T00:24:15;100669.53;;;3.31;100.00
14232;BME280;7200;52.194;9.900;2024-02-28T00:26:42;100668.69;;;3.20;100.00
14232;BME280;7200;52.194;9.900;2024-02-28T00:29:08;100672.19;;;3.14;100.00
14232;BME280;7200;52.194;9.900;2024-02-28T00:31:33;100668.72;;;3.12;100.00
14232;BME280;7200;52.194;9.900;2024-02-28T00:33:59;100665.25;;;3.10;100.00
14232;BME280;7200;52.194;9.900;2024-02-28T00:36:24;100681.78;;;3.00;100.00
14232;BME280;7200;52.194;9.900;2024-02-28T00:38:49;100680.91;;;2.90;100.00
14232;BME280;7200;52.194;9.900;2024-02-28T00:41:14;100679.16;;;2.93;100.00
14232;BME280;7200;52.194;9.900;2024-02-28T00:43:40;100686.13;;;2.90;100.00
14232;BME280;7200;52.194;9.900;2024-02-28T00:46:05;100686.13;;;2.99;100.00
14232;BME280;7200;52.194;9.900;2024-02-28T00:48:36;100688.72;;;2.93;100.00
14232;BME280;7200;52.194;9.900;2024-02-28T00:51:01;100687.88;;;3.03;100.00
14232;BME280;7200;52.194;9.900;2024-02-28T00:53:27;100680.03;;;3.02;100.00
14232;BME280;7200;52.194;9.900;2024-02-28T00:55:52;100675.66;;;3.07;100.00
14232;BME280;7200;52.194;9.900;2024-02-28T00:58:18;100680.88;;;3.10;100.00
14232;BME280;7200;52.194;9.900;2024-02-28T01:00:43;100687.88;;;2.89;100.00
14232;BME280;7200;52.194;9.900;2024-02-28T01:03:08;100686.16;;;2.78;100.00
14232;BME280;7200;52.194;9.900;2024-02-28T01:05:36;100677.44;;;2.79;100.00
14232;BME280;7200;52.194;9.900;2024-02-28T01:08:01;100676.56;;;2.93;100.00
14232;BME280;7200;52.194;9.900;2024-02-28T01:10:26;100678.34;;;2.81;100.00
14232;BME280;7200;52.194;9.900;2024-02-28T01:12:51;100678.34;;;2.79;100.00
14232;BME280;7200;52.194;9.900;2024-02-28T01:15:17;100673.09;;;2.84;100.00
14232;BME280;7200;52.194;9.900;2024-02-28T01:17:42;100665.28;;;2.56;100.00
14232;BME280;7200;52.194;9.900;2024-02-28T01:20:08;100674.00;;;2.41;100.00
14232;BME280;7200;52.194;9.900;2024-02-28T01:22:34;100678.31;;;2.42;100.00
14232;BME280;7200;52.194;9.900;2024-02-28T01:24:59;100684.41;;;2.52;100.00
14232;BME280;7200;52.194;9.900;2024-02-28T01:27:24;100687.88;;;2.49;100.00
14232;BME280;7200;52.194;9.900;2024-02-28T01:29:50;100676.59;;;2.47;100.00
14232;BME280;7200;52.194;9.900;2024-02-28T01:32:15;100675.72;;;2.62;100.00
14232;BME280;7200;52.194;9.900;2024-02-28T01:34:40;100674.84;;;2.80;100.00
14232;BME280;7200;52.194;9.900;2024-02-28T01:37:05;100667.91;;;2.70;100.00
14232;BME280;7200;52.194;9.900;2024-02-28T01:39:31;100669.63;;;2.56;100.00
14232;BME280;7200;52.194;9.900;2024-02-28T01:41:56;100669.63;;;2.39;100.00
14232;BME280;7200;52.194;9.900;2024-02-28T01:44:22;100678.31;;;2.30;100.00
14232;BME280;7200;52.194;9.900;2024-02-28T01:46:48;100678.31;;;2.39;100.00
14232;BME280;7200;52.194;9.900;2024-02-28T01:49:13;100676.59;;;2.41;100.00
14232;BME280;7200;52.194;9.900;2024-02-28T01:51:40;100674.84;;;2.40;100.00
14232;BME280;7200;52.194;9.900;2024-02-28T01:54:06;100675.69;;;2.22;100.00
14232;BME280;7200;52.194;9.900;2024-02-28T01:56:32;100666.16;;;2.21;100.00
14232;BME280;7200;52.194;9.900;2024-02-28T01:58:57;100667.88;;;2.16;100.00
14232;BME280;7200;52.194;9.900;2024-02-28T02:01:23;100661.81;;;2.25;100.00
14232;BME280;7200;52.194;9.900;2024-02-28T02:03:49;100654.00;;;2.26;100.00
14232;BME280;7200;52.194;9.900;2024-02-28T02:06:14;100664.41;;;2.19;100.00
14232;BME280;7200;52.194;9.900;2024-02-28T02:08:40;100661.81;;;2.22;100.00
14232;BME280;7200;52.194;9.900;2024-02-28T02:11:06;100663.56;;;2.24;100.00
14232;BME280;7200;52.194;9.900;2024-02-28T02:13:32;100664.41;;;2.28;100.00
14232;BME280;7200;52.194;9.900;2024-02-28T02:15:57;100661.81;;;2.29;100.00
14232;BME280;7200;52.194;9.900;2024-02-28T02:18:22;100657.47;;;2.33;100.00
14232;BME280;7200;52.194;9.900;2024-02-28T02:20:58;100660.94;;;2.27;100.00
14232;BME280;7200;52.194;9.900;2024-02-28T02:23:24;100663.53;;;2.20;100.00
14232;BME280;7200;52.194;9.900;2024-02-28T02:25:49;100667.88;;;2.24;100.00
14232;BME280;7200;52.194;9.900;2024-02-28T02:28:14;100667.03;;;2.19;100.00
14232;BME280;7200;52.194;9.900;2024-02-28T02:30:40;100665.25;;;2.22;100.00
14232;BME280;7200;52.194;9.900;2024-02-28T02:33:07;100660.06;;;2.24;100.00
14232;BME280;7200;52.194;9.900;2024-02-28T02:35:33;100669.59;;;2.22;100.00
14232;BME280;7200;52.194;9.900;2024-02-28T02:37:58;100661.81;;;2.31;100.00
14232;BME280;7200;52.194;9.900;2024-02-28T02:40:24;100660.94;;;2.27;100.00
14232;BME280;7200;52.194;9.900;2024-02-28T02:42:49;100659.19;;;2.14;100.00
14232;BME280;7200;52.194;9.900;2024-02-28T02:45:15;100660.03;;;2.05;100.00
14232;BME280;7200;52.194;9.900;2024-02-28T02:47:41;100658.31;;;2.06;100.00
14232;BME280;7200;52.194;9.900;2024-02-28T02:50:09;100664.38;;;2.11;100.00
14232;BME280;7200;52.194;9.900;2024-02-28T02:52:34;100670.47;;;2.08;100.00
14232;BME280;7200;52.194;9.900;2024-02-28T02:54:59;100663.53;;;2.12;100.00
14232;BME280;7200;52.194;9.900;2024-02-28T02:57:25;100657.47;;;2.11;100.00
14232;BME280;7200;52.194;9.900;2024-02-28T02:59:50;100657.44;;;2.05;100.00
14232;BME280;7200;52.194;9.900;2024-02-28T03:02:15;100656.59;;;2.02;100.00
14232;BME280;7200;52.194;9.900;2024-02-28T03:04:40;100653.97;;;2.08;100.00
14232;BME280;7200;52.194;9.900;2024-02-28T03:07:06;100652.22;;;1.98;100.00
14232;BME280;7200;52.194;9.900;2024-02-28T03:09:31;100650.47;;;1.95;100.00
14232;BME280;7200;52.194;9.900;2024-02-28T03:11:56;100652.19;;;1.90;100.00
14232;BME280;7200;52.194;9.900;2024-02-28T03:14:22;100652.22;;;1.87;100.00
14232;BME280;7200;52.194;9.900;2024-02-28T03:16:47;100651.28;;;1.79;100.00
14232;BME280;7200;52.194;9.900;2024-02-28T03:19:14;100655.66;;;1.80;100.00
14232;BME280;7200;52.194;9.900;2024-02-28T03:21:40;100648.69;;;1.74;100.00
14232;BME280;7200;52.194;9.900;2024-02-28T03:24:06;100650.44;;;1.73;100.00
14232;BME280;7200;52.194;9.900;2024-02-28T03:26:31;100641.72;;;1.61;100.00
14232;BME280;7200;52.194;9.900;2024-02-28T03:28:57;100646.91;;;1.61;100.00
14232;BME280;7200;52.194;9.900;2024-02-28T03:31:22;100643.41;;;1.51;100.00
14232;BME280;7200;52.194;9.900;2024-02-28T03:33:47;100658.16;;;1.55;100.00
14232;BME280;7200;52.194;9.900;2024-02-28T03:36:13;100660.75;;;1.49;100.00
14232;BME280;7200;52.194;9.900;2024-02-28T03:38:38;100662.50;;;1.53;100.00
14232;BME280;7200;52.194;9.900;2024-02-28T03:41:03;100666.78;;;1.45;100.00
14232;BME280;7200;52.194;9.900;2024-02-28T03:43:29;100671.97;;;1.45;100.00
14232;BME280;7200;52.194;9.900;2024-02-28T03:45:54;100685.81;;;1.41;100.00
14232;BME280;7200;52.194;9.900;2024-02-28T03:48:22;100693.59;;;1.36;100.00
14232;BME280;7200;52.194;9.900;2024-02-28T03:50:47;100698.84;;;1.45;100.00
14232;BME280;7200;52.194;9.900;2024-02-28T03:53:13;100705.81;;;1.49;100.00
14232;BME280;7200;52.194;9.900;2024-02-28T03:55:38;100704.84;;;1.33;100.00
14232;BME280;7200;52.194;9.900;2024-02-28T03:58:04;100708.41;;;1.52;100.00
14232;BME280;7200;52.194;9.900;2024-02-28T04:00:32;100707.44;;;1.35;100.00
14232;BME280;7200;52.194;9.900;2024-02-28T04:02:57;100710.09;;;1.43;100.00
14232;BME280;7200;52.194;9.900;2024-02-28T04:05:22;100712.63;;;1.33;100.00
14232;BME280;7200;52.194;9.900;2024-02-28T04:07:47;100720.41;;;1.29;100.00
14232;BME280;7200;52.194;9.900;2024-02-28T04:10:13;100716.03;;;1.22;100.00
14232;BME280;7200;52.194;9.900;2024-02-28T04:12:42;100719.56;;;1.31;100.00
14232;BME280;7200;52.194;9.900;2024-02-28T04:15:08;100717.88;;;1.38;100.00
14232;BME280;7200;52.194;9.900;2024-02-28T04:17:33;100720.44;;;1.30;100.00
14232;BME280;7200;52.194;9.900;2024-02-28T04:19:58;100716.94;;;1.27;100.00
14232;BME280;7200;52.194;9.900;2024-02-28T04:22:24;100724.66;;;1.14;100.00
14232;BME280;7200;52.194;9.900;2024-02-28T04:24:49;100722.88;;;1.09;100.00
14232;BME280;7200;52.194;9.900;2024-02-28T04:27:14;100722.00;;;1.07;100.00
14232;BME280;7200;52.194;9.900;2024-02-28T04:29:40;100719.28;;;0.87;100.00
14232;BME280;7200;52.194;9.900;2024-02-28T04:32:06;100729.53;;;0.74;100.00
14232;BME280;7200;52.194;9.900;2024-02-28T04:34:31;100730.41;;;0.72;100.00
14232;BME280;7200;52.194;9.900;2024-02-28T04:36:56;100739.00;;;0.68;100.00
14232;BME280;7200;52.194;9.900;2024-02-28T04:39:21;100736.47;;;0.74;100.00
14232;BME280;7200;52.194;9.900;2024-02-28T04:41:47;100736.53;;;0.82;100.00
14232;BME280;7200;52.194;9.900;2024-02-28T04:44:12;100733.94;;;0.82;100.00
14232;BME280;7200;52.194;9.900;2024-02-28T04:46:38;100730.53;;;0.90;100.00
14232;BME280;7200;52.194;9.900;2024-02-28T04:49:03;100727.91;;;0.86;100.00
14232;BME280;7200;52.194;9.900;2024-02-28T04:51:28;100737.41;;;0.82;100.00
14232;BME280;7200;52.194;9.900;2024-02-28T04:53:54;100735.75;;;0.92;100.00
14232;BME280;7200;52.194;9.900;2024-02-28T04:56:19;100738.41;;;0.98;100.00
14232;BME280;7200;52.194;9.900;2024-02-28T04:58:44;100743.59;;;0.96;100.00
14232;BME280;7200;52.194;9.900;2024-02-28T05:01:10;100749.66;;;0.97;100.00
14232;BME280;7200;52.194;9.900;2024-02-28T05:03:35;100754.94;;;1.11;100.00
14232;BME280;7200;52.194;9.900;2024-02-28T05:06:00;100761.94;;;1.20;100.00
14232;BME280;7200;52.194;9.900;2024-02-28T05:08:25;100761.03;;;1.11;100.00
14232;BME280;7200;52.194;9.900;2024-02-28T05:10:52;100758.34;;;1.05;100.00
14232;BME280;7200;52.194;9.900;2024-02-28T05:13:19;100764.31;;;0.90;100.00
14232;BME280;7200;52.194;9.900;2024-02-28T05:15:44;100764.28;;;0.87;100.00
14232;BME280;7200;52.194;9.900;2024-02-28T05:18:10;100772.03;;;0.84;100.00
14232;BME280;7200;52.194;9.900;2024-02-28T05:20:35;100770.41;;;0.95;100.00
14232;BME280;7200;52.194;9.900;2024-02-28T05:23:00;100768.31;;;0.56;100.00
14232;BME280;7200;52.194;9.900;2024-02-28T05:25:26;100766.75;;;0.72;100.00
14232;BME280;7200;52.194;9.900;2024-02-28T05:27:51;100784.09;;;0.74;100.00
14232;BME280;7200;52.194;9.900;2024-02-28T05:30:16;100777.78;;;0.49;100.00
14232;BME280;7200;52.194;9.900;2024-02-28T05:32:41;100790.84;;;0.57;100.00
14232;BME280;7200;52.194;9.900;2024-02-28T05:35:07;100793.34;;;0.48;100.00
14232;BME280;7200;52.194;9.900;2024-02-28T05:37:32;100795.31;;;0.70;100.00
14232;BME280;7200;52.194;9.900;2024-02-28T05:39:58;100790.84;;;0.60;100.00
14232;BME280;7200;52.194;9.900;2024-02-28T05:42:23;100786.66;;;0.73;100.00
14232;BME280;7200;52.194;9.900;2024-02-28T05:44:49;100797.00;;;0.67;100.00
14232;BME280;7200;52.194;9.900;2024-02-28T05:47:15;100795.28;;;0.69;100.00
14232;BME280;7200;52.194;9.900;2024-02-28T05:49:40;100806.50;;;0.68;100.00
14232;BME280;7200;52.194;9.900;2024-02-28T05:52:05;100796.13;;;0.68;100.00
14232;BME280;7200;52.194;9.900;2024-02-28T05:54:31;100804.16;;;0.91;100.00
14232;BME280;7200;52.194;9.900;2024-02-28T05:56:56;100799.06;;;1.05;100.00
14232;BME280;7200;52.194;9.900;2024-02-28T05:59:22;100810.31;;;1.02;100.00
14232;BME280;7200;52.194;9.900;2024-02-28T06:01:47;100815.22;;;0.71;100.00
14232;BME280;7200;52.194;9.900;2024-02-28T06:04:12;100817.13;;;0.89;100.00
14232;BME280;7200;52.194;9.900;2024-02-28T06:06:38;100819.66;;;0.85;100.00
14232;BME280;7200;52.194;9.900;2024-02-28T06:09:03;100827.63;;;1.00;100.00
14232;BME280;7200;52.194;9.900;2024-02-28T06:11:28;100823.28;;;1.01;100.00
14232;BME280;7200;52.194;9.900;2024-02-28T06:13:54;100831.84;;;0.92;100.00
14232;BME280;7200;52.194;9.900;2024-02-28T06:16:19;100829.44;;;1.12;100.00
14232;BME280;7200;52.194;9.900;2024-02-28T06:18:44;100835.31;;;0.89;100.00
14232;BME280;7200;52.194;9.900;2024-02-28T06:21:10;100846.59;;;0.96;100.00
14232;BME280;7200;52.194;9.900;2024-02-28T06:23:35;100833.94;;;1.31;100.00
14232;BME280;7200;52.194;9.900;2024-02-28T06:26:00;100850.44;;;1.35;100.00
14232;BME280;7200;52.194;9.900;2024-02-28T06:28:26;100861.00;;;1.57;100.00
14232;BME280;7200;52.194;9.900;2024-02-28T06:30:52;100850.59;;;1.58;100.00
14232;BME280;7200;52.194;9.900;2024-02-28T06:33:17;100857.56;;;1.61;100.00
14232;BME280;7200;52.194;9.900;2024-02-28T06:35:42;100863.69;;;1.66;100.00
14232;BME280;7200;52.194;9.900;2024-02-28T06:38:08;100864.53;;;1.65;100.00
14232;BME280;7200;52.194;9.900;2024-02-28T06:40:34;100861.94;;;1.69;100.00
14232;BME280;7200;52.194;9.900;2024-02-28T06:43:00;100869.69;;;1.62;100.00
14232;BME280;7200;52.194;9.900;2024-02-28T06:45:25;100864.41;;;1.52;100.00
14232;BME280;7200;52.194;9.900;2024-02-28T06:47:51;100861.00;;;1.58;100.00
14232;BME280;7200;52.194;9.900;2024-02-28T06:50:16;100867.97;;;1.61;100.00
14232;BME280;7200;52.194;9.900;2024-02-28T06:52:42;100867.97;;;1.65;100.00
14232;BME280;7200;52.194;9.900;2024-02-28T06:55:07;100869.84;;;1.82;100.00
14232;BME280;7200;52.194;9.900;2024-02-28T06:57:40;100867.91;;;1.56;100.00
14232;BME280;7200;52.194;9.900;2024-02-28T07:00:07;100863.69;;;1.69;100.00
14232;BME280;7200;52.194;9.900;2024-02-28T07:02:44;100859.34;;;1.68;100.00
14232;BME280;7200;52.194;9.900;2024-02-28T07:05:10;100868.06;;;1.74;100.00
14232;BME280;7200;52.194;9.900;2024-02-28T07:07:35;100867.31;;;1.92;100.00
14232;BME280;7200;52.194;9.900;2024-02-28T07:10:03;100870.81;;;1.96;100.00
14232;BME280;7200;52.194;9.900;2024-02-28T07:12:29;100878.53;;;1.90;100.00
14232;BME280;7200;52.194;9.900;2024-02-28T07:14:54;100880.25;;;1.83;100.00
14232;BME280;7200;52.194;9.900;2024-02-28T07:17:20;100875.03;;;1.80;100.00
14232;BME280;7200;52.194;9.900;2024-02-28T07:19:46;100875.03;;;1.80;100.00
14232;BME280;7200;52.194;9.900;2024-02-28T07:22:11;100886.44;;;2.01;100.00
14232;BME280;7200;52.194;9.900;2024-02-28T07:24:36;100888.13;;;1.92;100.00
14232;BME280;7200;52.194;9.900;2024-02-28T07:27:02;100891.59;;;1.93;100.00
14232;BME280;7200;52.194;9.900;2024-02-28T07:29:27;100894.06;;;1.76;100.00
14232;BME280;7200;52.194;9.900;2024-02-28T07:31:53;100887.09;;;1.66;100.00
14232;BME280;7200;52.194;9.900;2024-02-28T07:34:18;100894.84;;;1.63;100.00
14232;BME280;7200;52.194;9.900;2024-02-28T07:36:43;100895.72;;;1.65;100.00
14232;BME280;7200;52.194;9.900;2024-02-28T07:39:09;100903.59;;;1.72;100.00
14232;BME280;7200;52.194;9.900;2024-02-28T07:41:40;100906.13;;;1.65;100.00
14232;BME280;7200;52.194;9.900;2024-02-28T07:44:07;100897.50;;;1.69;100.00
14232;BME280;7200;52.194;9.900;2024-02-28T07:46:33;100896.66;;;1.73;100.00
14232;BME280;7200;52.194;9.900;2024-02-28T07:48:58;100895.81;;;1.75;100.00
14232;BME280;7200;52.194;9.900;2024-02-28T07:51:23;100908.94;;;1.91;100.00
14232;BME280;7200;52.194;9.900;2024-02-28T07:53:48;100908.97;;;1.97;100.00
14232;BME280;7200;52.194;9.900;2024-02-28T07:56:19;100915.16;;;2.16;100.00
14232;BME280;7200;52.194;9.900;2024-02-28T07:58:45;100914.34;;;2.31;100.00
14232;BME280;7200;52.194;9.900;2024-02-28T08:01:10;100923.03;;;2.33;100.00
14232;BME280;7200;52.194;9.900;2024-02-28T08:03:35;100926.47;;;2.26;100.00
14232;BME280;7200;52.194;9.900;2024-02-28T08:06:01;100932.56;;;2.29;100.00
14232;BME280;7200;52.194;9.900;2024-02-28T08:08:26;100936.06;;;2.31;100.00
14232;BME280;7200;52.194;9.900;2024-02-28T08:10:51;100945.63;;;2.34;100.00
14232;BME280;7200;52.194;9.900;2024-02-28T08:13:18;100934.41;;;2.47;100.00
14232;BME280;7200;52.194;9.900;2024-02-28T08:15:43;100937.06;;;2.55;100.00
14232;BME280;7200;52.194;9.900;2024-02-28T08:18:09;100943.13;;;2.51;100.00
14232;BME280;7200;52.194;9.900;2024-02-28T08:20:39;100947.44;;;2.47;100.00
14232;BME280;7200;52.194;9.900;2024-02-28T08:23:05;100949.19;;;2.56;100.00
14232;BME280;7200;52.194;9.900;2024-02-28T08:25:30;100960.38;;;2.35;100.00
14232;BME280;7200;52.194;9.900;2024-02-28T08:27:55;100957.81;;;2.40;100.00
14232;BME280;7200;52.194;9.900;2024-02-28T08:30:21;100960.47;;;2.47;100.00
14232;BME280;7200;52.194;9.900;2024-02-28T08:32:47;100959.56;;;2.48;100.00
14232;BME280;7200;52.194;9.900;2024-02-28T08:35:12;100964.81;;;2.56;100.00
14232;BME280;7200;52.194;9.900;2024-02-28T08:37:40;100974.41;;;2.57;100.00
14232;BME280;7200;52.194;9.900;2024-02-28T08:40:07;100972.66;;;2.59;100.00
14232;BME280;7200;52.194;9.900;2024-02-28T08:42:32;100974.47;;;2.74;100.00
14232;BME280;7200;52.194;9.900;2024-02-28T08:44:57;100971.91;;;2.83;100.00
14232;BME280;7200;52.194;9.900;2024-02-28T08:47:25;100977.13;;;2.85;100.00
14232;BME280;7200;52.194;9.900;2024-02-28T08:49:51;100976.22;;;2.73;100.00
14232;BME280;7200;52.194;9.900;2024-02-28T08:52:17;100982.31;;;2.82;100.00
14232;BME280;7200;52.194;9.900;2024-02-28T08:54:42;100978.84;;;2.81;100.00
14232;BME280;7200;52.194;9.900;2024-02-28T08:57:07;100980.59;;;2.81;100.00
14232;BME280;7200;52.194;9.900;2024-02-28T08:59:33;100975.38;;;2.81;100.00
14232;BME280;7200;52.194;9.900;2024-02-28T09:01:58;100979.69;;;2.74;100.00
14232;BME280;7200;52.194;9.900;2024-02-28T09:04:23;100983.22;;;2.90;100.00
14232;BME280;7200;52.194;9.900;2024-02-28T09:06:48;100978.00;;;2.81;100.00
14232;BME280;7200;52.194;9.900;2024-02-28T09:09:14;100982.28;;;2.74;100.00
14232;BME280;7200;52.194;9.900;2024-02-28T09:11:39;100981.44;;;2.84;100.00
14232;BME280;7200;52.194;9.900;2024-02-28T09:14:04;100978.03;;;2.96;100.00
14232;BME280;7200;52.194;9.900;2024-02-28T09:16:30;100982.34;;;2.85;100.00
14232;BME280;7200;52.194;9.900;2024-02-28T09:18:55;100979.75;;;2.96;100.00
14232;BME280;7200;52.194;9.900;2024-02-28T09:21:20;100982.34;;;2.85;100.00
14232;BME280;7200;52.194;9.900;2024-02-28T09:23:46;100984.16;;;3.10;100.00
14232;BME280;7200;52.194;9.900;2024-02-28T09:26:11;100984.16;;;3.10;100.00
14232;BME280;7200;52.194;9.900;2024-02-28T09:28:36;100996.25;;;2.88;100.00
14232;BME280;7200;52.194;9.900;2024-02-28T09:31:01;100995.47;;;3.16;100.00
14232;BME280;7200;52.194;9.900;2024-02-28T09:33:27;101002.47;;;3.23;100.00
14232;BME280;7200;52.194;9.900;2024-02-28T09:35:52;101000.72;;;3.26;100.00
14232;BME280;7200;52.194;9.900;2024-02-28T09:38:18;100995.44;;;3.00;100.00
14232;BME280;7200;52.194;9.900;2024-02-28T09:40:47;100996.31;;;3.08;100.00
14232;BME280;7200;52.194;9.900;2024-02-28T09:43:19;101004.22;;;3.28;100.00
14232;BME280;7200;52.194;9.900;2024-02-28T09:45:48;101012.94;;;3.47;100.00
14232;BME280;7200;52.194;9.900;2024-02-28T09:48:14;101007.72;;;3.40;100.00
14232;BME280;7200;52.194;9.900;2024-02-28T09:50:42;101009.47;;;3.58;100.00
14232;BME280;7200;52.194;9.900;2024-02-28T09:53:07;101012.13;;;3.70;100.00
14232;BME280;7200;52.194;9.900;2024-02-28T09:55:32;101009.50;;;3.84;100.00
14232;BME280;7200;52.194;9.900;2024-02-28T09:57:58;101006.00;;;3.65;100.00
14232;BME280;7200;52.194;9.900;2024-02-28T10:00:25;101013.84;;;3.83;100.00
14232;BME280;7200;52.194;9.900;2024-02-28T10:02:51;101009.53;;;3.98;100.00
14232;BME280;7200;52.194;9.900;2024-02-28T10:05:18;101016.47;;;4.11;100.00
14232;BME280;7200;52.194;9.900;2024-02-28T10:07:47;101014.72;;;3.76;100.00
14232;BME280;7200;52.194;9.900;2024-02-28T10:10:12;101019.94;;;3.68;100.00
14232;BME280;7200;52.194;9.900;2024-02-28T10:12:41;101024.28;;;3.65;100.00
14232;BME280;7200;52.194;9.900;2024-02-28T10:15:09;101016.47;;;3.79;100.00
14232;BME280;7200;52.194;9.900;2024-02-28T10:17:34;101013.00;;;3.87;100.00
14232;BME280;7200;52.194;9.900;2024-02-28T10:20:00;101019.06;;;3.83;100.00
14232;BME280;7200;52.194;9.900;2024-02-28T10:22:25;101025.19;;;3.98;100.00
14232;BME280;7200;52.194;9.900;2024-02-28T10:24:57;101018.22;;;3.81;100.00
14232;BME280;7200;52.194;9.900;2024-02-28T10:27:23;101034.75;;;3.85;100.00
14232;BME280;7200;52.194;9.900;2024-02-28T10:29:48;101034.75;;;4.06;100.00
14232;BME280;7200;52.194;9.900;2024-02-28T10:32:13;101047.78;;;4.39;100.00
14232;BME280;7200;52.194;9.900;2024-02-28T10:34:39;101038.22;;;4.25;100.00
14232;BME280;7200;52.194;9.900;2024-02-28T10:37:05;101037.34;;;4.46;100.00
14232;BME280;7200;52.194;9.900;2024-02-28T10:39:31;101039.94;;;4.22;100.00
14232;BME280;7200;52.194;9.900;2024-02-28T10:41:59;101037.38;;;4.28;100.00
14232;BME280;7200;52.194;9.900;2024-02-28T10:44:26;101045.19;;;4.17;100.00
14232;BME280;7200;52.194;9.900;2024-02-28T10:46:53;101037.38;;;4.11;100.00
14232;BME280;7200;52.194;9.900;2024-02-28T10:49:18;101048.66;;;4.36;100.00
14232;BME280;7200;52.194;9.900;2024-02-28T10:51:46;101046.94;;;4.31;100.00
14232;BME280;7200;52.194;9.900;2024-02-28T10:54:14;101038.16;;;4.73;100.00
14232;BME280;7200;52.194;9.900;2024-02-28T10:56:40;101039.03;;;4.61;100.00
14232;BME280;7200;52.194;9.900;2024-02-28T10:59:07;101035.59;;;4.58;100.00
14232;BME280;7200;52.194;9.900;2024-02-28T11:01:37;101029.47;;;4.62;100.00
14232;BME280;7200;52.194;9.900;2024-02-28T11:04:03;101038.19;;;4.58;100.00
14232;BME280;7200;52.194;9.900;2024-02-28T11:06:29;101036.28;;;5.04;100.00
14232;BME280;7200;52.194;9.900;2024-02-28T11:08:55;101028.47;;;4.98;100.00
14232;BME280;7200;52.194;9.900;2024-02-28T11:11:21;101029.38;;;4.94;100.00
14232;BME280;7200;52.194;9.900;2024-02-28T11:13:54;101018.00;;;4.95;100.00
14232;BME280;7200;52.194;9.900;2024-02-28T11:16:46;101015.47;;;4.78;100.00
14232;BME280;7200;52.194;9.900;2024-02-28T11:19:21;101018.06;;;4.91;100.00
14232;BME280;7200;52.194;9.900;2024-02-28T11:21:53;101011.03;;;4.99;100.00
14232;BME280;7200;52.194;9.900;2024-02-28T11:24:22;101015.38;;;5.09;100.00
14232;BME280;7200;52.194;9.900;2024-02-28T11:26:48;101010.25;;;4.77;100.00
14232;BME280;7200;52.194;9.900;2024-02-28T11:29:16;101008.44;;;4.93;100.00
14232;BME280;7200;52.194;9.900;2024-02-28T11:31:41;101006.66;;;5.01;100.00
14232;BME280;7200;52.194;9.900;2024-02-28T11:34:06;100993.59;;;5.05;100.00
14232;BME280;7200;52.194;9.900;2024-02-28T11:36:32;100991.88;;;5.03;100.00
14232;BME280;7200;52.194;9.900;2024-02-28T11:38:57;101002.97;;;5.42;100.00
14232;BME280;7200;52.194;9.900;2024-02-28T11:41:26;101000.44;;;5.25;100.00
14232;BME280;7200;52.194;9.900;2024-02-28T11:43:52;101003.75;;;5.55;100.00
14232;BME280;7200;52.194;9.900;2024-02-28T11:46:18;100996.03;;;5.38;100.00
14232;BME280;7200;52.194;9.900;2024-02-28T11:48:43;100999.50;;;5.38;100.00
14232;BME280;7200;52.194;9.900;2024-02-28T11:51:09;100999.38;;;5.58;100.00
14232;BME280;7200;52.194;9.900;2024-02-28T11:53:34;100994.13;;;5.61;100.00
14232;BME280;7200;52.194;9.900;2024-02-28T11:55:59;101006.38;;;5.55;100.00
14232;BME280;7200;52.194;9.900;2024-02-28T11:58:25;101002.06;;;5.52;100.00
14232;BME280;7200;52.194;9.900;2024-02-28T12:00:51;101006.44;;;5.49;100.00
14232;BME280;7200;52.194;9.900;2024-02-28T12:03:24;101000.28;;;5.54;100.00
14232;BME280;7200;52.194;9.900;2024-02-28T12:05:50;100989.94;;;5.31;100.00
14232;BME280;7200;52.194;9.900;2024-02-28T12:08:19;100985.59;;;5.32;100.00
14232;BME280;7200;52.194;9.900;2024-02-28T12:10:46;100985.31;;;5.75;100.00
14232;BME280;7200;52.194;9.900;2024-02-28T12:13:11;100983.56;;;5.77;100.00
14232;BME280;7200;52.194;9.900;2024-02-28T12:15:40;100979.06;;;5.96;100.00
14232;BME280;7200;52.194;9.900;2024-02-28T12:18:10;100978.19;;;5.95;100.00
14232;BME280;7200;52.194;9.900;2024-02-28T12:20:35;100969.66;;;5.65;100.00
14232;BME280;7200;52.194;9.900;2024-02-28T12:23:03;100976.56;;;5.76;100.00
14232;BME280;7200;52.194;9.900;2024-02-28T12:25:29;100968.75;;;5.73;100.00
14232;BME280;7200;52.194;9.900;2024-02-28T12:27:54;100967.91;;;5.64;100.00
14232;BME280;7200;52.194;9.900;2024-02-28T12:30:20;100971.41;;;5.66;100.00
14232;BME280;7200;52.194;9.900;2024-02-28T12:32:45;100971.19;;;5.93;100.00
14232;BME280;7200;52.194;9.900;2024-02-28T12:35:11;100967.00;;;5.72;100.00
14232;BME280;7200;52.194;9.900;2024-02-28T12:37:36;100959.09;;;5.79;100.00
14232;BME280;7200;52.194;9.900;2024-02-28T12:40:01;100950.22;;;5.93;100.00
14232;BME280;7200;52.194;9.900;2024-02-28T12:42:30;100944.03;;;6.04;100.00
14232;BME280;7200;52.194;9.900;2024-02-28T12:44:55;100945.78;;;6.09;100.00
14232;BME280;7200;52.194;9.900;2024-02-28T12:47:21;100938.22;;;6.58;100.00
14232;BME280;7200;52.194;9.900;2024-02-28T12:49:46;100937.56;;;6.41;100.00
14232;BME280;7200;52.194;9.900;2024-02-28T12:52:11;100933.91;;;6.57;100.00
14232;BME280;7200;52.194;9.900;2024-02-28T12:54:36;100923.34;;;6.60;100.00